Time;durP1;ratioP1;P1;durP2;ratioP2;P2;SDS_P1;SDS_P2;PMS_P1;PMS_P2;Temp;Humidity;BMP_temperature;BMP_pressure;BME280_temperature;BME280_humidity;BME280_pressure;Samples;Min_cycle;Max_cycle;Signal;HPM_P1;HPM_P2
2022/03/04 00:01:22;;;;;;;25.45;15.13;;;4.90;99.90;;;;;;5026458;28;20025;-80
2022/03/04 00:03:48;;;;;;;23.92;15.50;;;4.90;99.90;;;;;;5040456;28;20033;-78
2022/03/04 00:06:14;;;;;;;21.73;14.23;;;4.80;99.90;;;;;;5024126;28;20020;-78
2022/03/04 00:08:39;;;;;;;26.00;15.68;;;4.80;99.90;;;;;;5040673;28;20547;-78
2022/03/04 00:11:05;;;;;;;21.13;13.98;;;4.80;99.90;;;;;;5025613;28;20030;-78
2022/03/04 00:13:32;;;;;;;22.20;14.73;;;4.80;99.90;;;;;;5034244;28;20551;-78
2022/03/04 00:15:58;;;;;;;20.95;15.05;;;4.80;99.90;;;;;;5032333;28;20025;-78
2022/03/04 00:18:24;;;;;;;21.65;14.48;;;4.80;99.90;;;;;;5023644;28;20485;-78
2022/03/04 00:20:49;;;;;;;23.65;15.50;;;4.70;99.90;;;;;;5038534;28;20034;-78
2022/03/04 00:23:16;;;;;;;24.65;15.23;;;4.60;99.90;;;;;;5046107;28;20018;-78
2022/03/04 00:25:41;;;;;;;28.00;14.90;;;4.70;99.90;;;;;;5026507;28;20071;-80
2022/03/04 00:28:07;;;;;;;27.08;16.40;;;4.60;99.90;;;;;;5027215;28;20049;-78
2022/03/04 00:30:34;;;;;;;26.95;14.57;;;4.70;99.90;;;;;;5040724;28;20116;-78
2022/03/04 00:32:59;;;;;;;23.63;14.48;;;4.70;99.90;;;;;;5036948;28;20036;-78
2022/03/04 00:35:25;;;;;;;25.55;14.18;;;4.70;99.90;;;;;;5029870;28;20033;-78
2022/03/04 00:37:51;;;;;;;26.58;15.65;;;4.70;99.90;;;;;;5037280;28;20492;-78
2022/03/04 00:40:17;;;;;;;23.70;15.00;;;4.70;99.90;;;;;;5026200;28;20021;-78
2022/03/04 00:42:43;;;;;;;23.77;14.45;;;4.60;99.90;;;;;;5039632;28;20112;-79
2022/03/04 00:45:09;;;;;;;27.13;15.57;;;4.70;99.90;;;;;;5022719;28;20022;-79
2022/03/04 00:47:35;;;;;;;24.80;14.93;;;4.60;99.90;;;;;;5036607;28;20030;-78
2022/03/04 00:50:02;;;;;;;24.00;15.63;;;4.60;99.90;;;;;;5037739;28;20568;-79
2022/03/04 00:52:28;;;;;;;25.55;14.65;;;4.60;99.90;;;;;;5030844;28;20037;-78
2022/03/04 00:54:54;;;;;;;23.67;14.70;;;4.50;99.90;;;;;;5034575;28;20052;-78
2022/03/04 00:57:20;;;;;;;26.58;15.65;;;4.50;99.90;;;;;;5028366;28;20810;-78
2022/03/04 00:59:45;;;;;;;25.30;15.38;;;4.50;99.90;;;;;;5027591;28;20025;-78
2022/03/04 01:02:11;;;;;;;28.80;16.10;;;4.50;99.90;;;;;;5036588;28;20397;-78
2022/03/04 01:04:37;;;;;;;26.40;15.10;;;4.50;99.90;;;;;;5029809;28;20036;-80
2022/03/04 01:07:03;;;;;;;22.42;15.00;;;4.50;99.90;;;;;;5033560;28;20024;-78
2022/03/04 01:09:29;;;;;;;26.98;16.90;;;4.50;99.90;;;;;;5022477;28;20033;-80
2022/03/04 01:11:55;;;;;;;25.88;15.70;;;4.40;99.90;;;;;;5039228;28;20062;-80
2022/03/04 01:14:21;;;;;;;24.52;15.32;;;4.50;99.90;;;;;;5023949;28;20072;-80
2022/03/04 01:16:47;;;;;;;25.20;14.98;;;4.40;99.90;;;;;;5040808;28;20081;-80
2022/03/04 01:19:13;;;;;;;24.90;16.00;;;4.30;99.90;;;;;;5027778;28;20037;-80
2022/03/04 01:21:39;;;;;;;23.63;14.55;;;4.30;99.90;;;;;;5036863;28;20017;-80
2022/03/04 01:24:06;;;;;;;27.65;16.27;;;4.30;99.90;;;;;;5034811;28;20041;-79
2022/03/04 01:26:32;;;;;;;26.67;16.77;;;4.30;99.90;;;;;;5032022;28;20018;-80
2022/03/04 01:28:58;;;;;;;26.17;16.42;;;4.30;99.90;;;;;;5036940;28;20021;-80
2022/03/04 01:31:24;;;;;;;26.80;16.05;;;4.30;99.90;;;;;;5034474;28;20533;-80
2022/03/04 01:33:50;;;;;;;25.45;15.25;;;4.30;99.90;;;;;;5038150;28;20076;-80
2022/03/04 01:36:16;;;;;;;24.00;15.60;;;4.30;99.90;;;;;;5028926;28;20029;-79
2022/03/04 01:38:42;;;;;;;22.00;14.05;;;4.20;99.90;;;;;;5035064;28;20025;-80
2022/03/04 01:41:08;;;;;;;24.17;15.73;;;4.20;99.90;;;;;;5035310;28;20022;-80
2022/03/04 01:43:35;;;;;;;23.58;15.25;;;4.20;99.90;;;;;;5035974;28;20032;-80
2022/03/04 01:46:13;;;;;;;25.30;14.88;;;4.20;99.90;;;;;;5035336;28;20152;-79
2022/03/04 01:48:40;;;;;;;26.15;15.65;;;4.10;99.90;;;;;;5033926;28;20025;-80
2022/03/04 01:51:07;;;;;;;27.98;15.98;;;4.10;99.90;;;;;;5041674;28;20122;-80
2022/03/04 01:53:33;;;;;;;25.70;15.18;;;4.10;99.90;;;;;;5034076;28;20038;-81
2022/03/04 01:55:59;;;;;;;28.27;15.88;;;4.00;99.90;;;;;;5031653;28;20493;-80
2022/03/04 01:58:24;;;;;;;26.75;17.30;;;4.00;99.90;;;;;;5035406;28;20036;-80
2022/03/04 02:00:50;;;;;;;28.13;16.42;;;4.00;99.90;;;;;;5044666;28;20083;-80
2022/03/04 02:03:16;;;;;;;25.27;16.23;;;3.90;99.90;;;;;;5032811;28;20026;-79
2022/03/04 02:05:43;;;;;;;28.75;16.05;;;3.90;99.90;;;;;;5043042;28;20052;-79
2022/03/04 02:08:08;;;;;;;26.48;15.30;;;3.80;99.90;;;;;;5045774;28;20486;-80
2022/03/04 02:10:34;;;;;;;29.55;15.98;;;3.80;99.90;;;;;;5043178;28;20064;-80
2022/03/04 02:13:00;;;;;;;26.55;17.27;;;3.70;99.90;;;;;;5036431;28;20470;-79
2022/03/04 02:15:26;;;;;;;29.35;17.48;;;3.70;99.90;;;;;;5048069;28;20398;-79
2022/03/04 02:17:52;;;;;;;27.70;17.90;;;3.70;99.90;;;;;;5037531;28;20024;-80
2022/03/04 02:20:21;;;;;;;29.38;17.10;;;3.60;99.90;;;;;;5027380;28;20037;-80
2022/03/04 02:22:47;;;;;;;29.23;16.80;;;3.60;99.90;;;;;;5036236;28;20025;-80
2022/03/04 02:25:13;;;;;;;24.48;16.40;;;3.60;99.90;;;;;;5045310;28;20433;-80
2022/03/04 02:27:38;;;;;;;26.50;15.23;;;3.60;99.90;;;;;;5054811;28;20394;-80
2022/03/04 02:30:05;;;;;;;23.75;15.40;;;3.50;99.90;;;;;;5026250;28;20026;-80
2022/03/04 02:32:31;;;;;;;29.05;15.52;;;3.50;99.90;;;;;;5035499;28;20029;-80
2022/03/04 02:34:57;;;;;;;28.58;15.98;;;3.50;99.90;;;;;;5031899;28;20108;-80
2022/03/04 02:37:23;;;;;;;24.60;15.45;;;3.50;99.90;;;;;;5028217;28;20025;-80
2022/03/04 02:39:50;;;;;;;27.45;14.77;;;3.40;99.90;;;;;;5037875;28;20554;-80
2022/03/04 02:42:17;;;;;;;26.90;15.38;;;3.40;99.90;;;;;;5031002;28;20079;-79
2022/03/04 02:44:43;;;;;;;24.67;15.00;;;3.40;99.90;;;;;;5042848;28;20026;-80
2022/03/04 02:47:09;;;;;;;23.75;14.27;;;3.30;99.90;;;;;;5039885;28;20089;-79
2022/03/04 02:49:34;;;;;;;22.73;14.25;;;3.30;99.90;;;;;;5042487;28;20029;-79
2022/03/04 02:52:00;;;;;;;29.77;15.93;;;3.30;99.90;;;;;;5028981;28;20041;-79
2022/03/04 02:54:25;;;;;;;27.30;15.27;;;3.20;99.90;;;;;;5040976;28;20190;-79
2022/03/04 02:56:51;;;;;;;24.23;15.57;;;3.20;99.90;;;;;;5039752;28;20480;-79
2022/03/04 02:59:17;;;;;;;23.83;14.32;;;3.20;99.90;;;;;;5035907;28;20128;-79
2022/03/04 03:01:43;;;;;;;24.55;15.40;;;3.20;99.90;;;;;;5029551;28;20022;-79
2022/03/04 03:04:08;;;;;;;24.00;14.82;;;3.20;99.90;;;;;;5035463;28;20029;-79
2022/03/04 03:06:34;;;;;;;31.38;17.02;;;3.20;99.90;;;;;;5036624;28;20113;-79
2022/03/04 03:09:00;;;;;;;25.17;15.40;;;3.20;99.90;;;;;;5034640;28;20026;-79
2022/03/04 03:11:26;;;;;;;28.85;15.93;;;3.20;99.90;;;;;;5029767;28;20029;-79
2022/03/04 03:13:52;;;;;;;28.95;16.98;;;3.10;99.90;;;;;;5040793;28;20023;-79
2022/03/04 03:16:18;;;;;;;26.88;15.45;;;3.10;99.90;;;;;;5025085;28;20036;-78
2022/03/04 03:18:43;;;;;;;25.85;15.60;;;3.10;99.90;;;;;;5041136;28;20028;-79
2022/03/04 03:21:09;;;;;;;27.52;16.73;;;3.10;99.90;;;;;;5032371;28;20577;-78
2022/03/04 03:23:35;;;;;;;28.08;17.00;;;3.10;99.90;;;;;;5034797;28;20096;-78
2022/03/04 03:26:00;;;;;;;30.40;16.83;;;3.10;99.90;;;;;;5035961;28;20565;-78
2022/03/04 03:28:26;;;;;;;26.33;15.95;;;3.00;99.90;;;;;;5045364;28;20072;-79
2022/03/04 03:30:52;;;;;;;27.17;16.33;;;3.00;99.90;;;;;;5035257;28;20029;-79
2022/03/04 03:33:17;;;;;;;25.08;15.90;;;3.00;99.90;;;;;;5029208;28;20024;-79
2022/03/04 03:35:43;;;;;;;27.00;15.77;;;3.00;99.90;;;;;;5038563;28;20033;-79
2022/03/04 03:38:09;;;;;;;25.38;15.65;;;3.00;99.90;;;;;;5029843;28;20109;-79
2022/03/04 03:40:34;;;;;;;27.58;14.85;;;3.00;99.90;;;;;;5039807;28;20025;-79
2022/03/04 03:43:00;;;;;;;25.65;14.82;;;3.00;99.90;;;;;;5046937;28;20060;-79
2022/03/04 03:45:26;;;;;;;28.48;16.48;;;3.00;99.90;;;;;;5026685;28;20025;-79
2022/03/04 03:47:53;;;;;;;26.77;15.52;;;2.90;99.90;;;;;;5040141;28;20033;-79
2022/03/04 03:50:19;;;;;;;27.73;15.05;;;2.90;99.90;;;;;;5024578;28;20036;-79
2022/03/04 03:52:45;;;;;;;28.95;15.90;;;2.80;99.90;;;;;;5038022;28;20030;-79
2022/03/04 03:55:11;;;;;;;24.27;15.82;;;2.80;99.90;;;;;;5032990;28;20034;-79
2022/03/04 03:57:37;;;;;;;26.98;16.77;;;2.90;99.90;;;;;;5031131;28;20096;-79
2022/03/04 04:00:04;;;;;;;27.52;16.15;;;2.90;99.90;;;;;;5035604;28;20177;-79
2022/03/04 04:02:30;;;;;;;28.60;15.23;;;2.90;99.90;;;;;;5028520;28;20033;-79
2022/03/04 04:04:56;;;;;;;30.92;16.83;;;2.80;99.90;;;;;;5039148;28;20029;-79
2022/03/04 04:07:21;;;;;;;32.50;17.25;;;2.70;99.90;;;;;;5043259;28;20105;-79
2022/03/04 04:09:47;;;;;;;28.83;16.25;;;2.70;99.90;;;;;;5044940;28;20052;-79
2022/03/04 04:12:13;;;;;;;26.33;15.93;;;2.70;99.90;;;;;;5041505;28;20042;-79
2022/03/04 04:14:38;;;;;;;27.38;16.35;;;2.70;99.90;;;;;;5029906;28;20068;-79
2022/03/04 04:17:05;;;;;;;30.27;16.92;;;2.70;99.90;;;;;;5037312;28;21667;-79
2022/03/04 04:19:31;;;;;;;28.27;16.25;;;2.70;99.90;;;;;;5032310;28;20037;-80
2022/03/04 04:21:56;;;;;;;27.65;15.88;;;2.70;99.90;;;;;;5025270;28;20030;-79
2022/03/04 04:24:22;;;;;;;31.50;17.48;;;2.60;99.90;;;;;;5039546;28;20425;-79
2022/03/04 04:26:48;;;;;;;29.15;16.30;;;2.60;99.90;;;;;;5036419;28;20028;-79
2022/03/04 04:29:13;;;;;;;27.45;16.33;;;2.60;99.90;;;;;;5028898;28;20029;-79
2022/03/04 04:31:40;;;;;;;25.08;16.02;;;2.50;99.90;;;;;;5028251;28;20022;-79
2022/03/04 04:34:06;;;;;;;25.85;15.52;;;2.60;99.90;;;;;;5034414;28;20500;-79
2022/03/04 04:36:32;;;;;;;28.85;16.75;;;2.50;99.90;;;;;;5024213;28;20025;-79
2022/03/04 04:38:58;;;;;;;26.42;15.38;;;2.50;99.90;;;;;;5037329;28;20425;-79
2022/03/04 04:41:23;;;;;;;30.30;17.73;;;2.40;99.90;;;;;;5029636;28;20048;-79
2022/03/04 04:43:49;;;;;;;31.38;18.17;;;2.40;99.90;;;;;;5032614;28;20056;-79
2022/03/04 04:46:15;;;;;;;31.48;17.80;;;2.40;99.90;;;;;;5028032;28;20032;-78
2022/03/04 04:48:41;;;;;;;33.55;18.23;;;2.40;99.90;;;;;;5032974;28;20481;-78
2022/03/04 04:51:07;;;;;;;28.38;16.75;;;2.40;99.90;;;;;;5038299;28;20037;-79
2022/03/04 04:53:33;;;;;;;31.38;17.00;;;2.40;99.90;;;;;;5035347;28;20104;-79
2022/03/04 04:55:59;;;;;;;26.90;16.08;;;2.40;99.90;;;;;;5035909;28;20014;-79
2022/03/04 04:58:25;;;;;;;31.33;18.33;;;2.30;99.90;;;;;;5034313;28;20477;-79
2022/03/04 05:00:53;;;;;;;26.85;16.77;;;2.20;99.90;;;;;;5044623;28;20037;-79
2022/03/04 05:03:26;;;;;;;27.58;16.80;;;2.20;99.90;;;;;;5046263;28;20159;-78
2022/03/04 05:05:56;;;;;;;34.50;18.83;;;2.30;99.90;;;;;;5044223;28;20099;-78
2022/03/04 05:08:24;;;;;;;34.28;18.35;;;2.30;99.90;;;;;;5035493;28;20028;-78
2022/03/04 05:10:50;;;;;;;31.63;18.20;;;2.30;99.90;;;;;;5044234;28;20112;-78
2022/03/04 05:13:16;;;;;;;36.42;20.55;;;2.30;99.90;;;;;;5036181;28;20109;-79
2022/03/04 05:15:41;;;;;;;36.95;19.20;;;2.20;99.90;;;;;;5037008;28;20036;-79
2022/03/04 05:18:10;;;;;;;37.90;21.50;;;2.20;99.90;;;;;;5043344;28;20025;-78
2022/03/04 05:20:36;;;;;;;36.58;19.77;;;2.20;99.90;;;;;;5035033;28;20044;-79
2022/03/04 05:23:02;;;;;;;33.75;18.23;;;2.20;99.90;;;;;;5044618;28;20017;-78
2022/03/04 05:25:28;;;;;;;34.55;19.00;;;2.20;99.90;;;;;;5046379;28;20409;-78
2022/03/04 05:27:53;;;;;;;36.08;19.17;;;2.30;99.90;;;;;;5044200;28;20488;-79
2022/03/04 05:30:19;;;;;;;32.55;18.92;;;2.30;99.90;;;;;;5034500;28;20036;-79
2022/03/04 05:32:45;;;;;;;33.75;19.25;;;2.30;99.90;;;;;;5041709;28;20024;-79
2022/03/04 05:35:10;;;;;;;31.17;18.73;;;2.30;99.90;;;;;;5035547;28;20398;-79
2022/03/04 05:37:36;;;;;;;35.17;18.85;;;2.20;99.90;;;;;;5044274;28;20400;-79
2022/03/04 05:40:02;;;;;;;31.83;18.17;;;2.20;99.90;;;;;;5039254;28;22018;-79
2022/03/04 05:42:28;;;;;;;31.75;19.30;;;2.20;99.90;;;;;;5034791;28;20432;-80
2022/03/04 05:44:53;;;;;;;34.10;19.23;;;2.20;99.90;;;;;;5040220;28;20029;-79
2022/03/04 05:47:19;;;;;;;37.55;20.58;;;2.20;99.90;;;;;;5031132;28;20048;-80
2022/03/04 05:49:45;;;;;;;37.83;20.38;;;2.20;99.90;;;;;;5039466;28;20164;-80
2022/03/04 05:52:10;;;;;;;38.38;21.13;;;2.20;99.90;;;;;;5033412;28;20486;-79
2022/03/04 05:54:36;;;;;;;32.83;18.98;;;2.20;99.90;;;;;;5044526;28;20037;-79
2022/03/04 05:57:03;;;;;;;39.35;20.15;;;2.20;99.90;;;;;;5029224;28;20072;-79
2022/03/04 05:59:29;;;;;;;33.97;19.00;;;2.20;99.90;;;;;;5047740;28;20504;-79
2022/03/04 06:01:55;;;;;;;36.60;20.45;;;2.10;99.90;;;;;;5029688;28;20045;-79
2022/03/04 06:04:20;;;;;;;39.22;20.50;;;2.20;99.90;;;;;;5038671;28;20041;-79
2022/03/04 06:06:46;;;;;;;35.83;20.30;;;2.10;99.90;;;;;;5035640;28;20022;-79
2022/03/04 06:09:12;;;;;;;36.60;20.23;;;2.10;99.90;;;;;;5032930;28;20030;-79
2022/03/04 06:11:37;;;;;;;34.70;17.67;;;2.10;99.90;;;;;;5054409;28;20057;-79
2022/03/04 06:14:03;;;;;;;34.97;19.00;;;2.10;99.90;;;;;;5045431;28;20040;-77
2022/03/04 06:16:29;;;;;;;33.80;18.88;;;2.10;99.90;;;;;;5042695;28;20047;-78
2022/03/04 06:18:55;;;;;;;34.45;19.45;;;2.10;99.90;;;;;;5040006;28;20489;-76
2022/03/04 06:21:21;;;;;;;36.00;19.17;;;2.10;99.90;;;;;;5036898;28;20125;-78
2022/03/04 06:23:47;;;;;;;34.85;18.88;;;2.00;99.90;;;;;;5047405;28;20022;-77
2022/03/04 06:26:13;;;;;;;41.00;19.25;;;2.00;99.90;;;;;;5044937;28;20959;-77
2022/03/04 06:28:39;;;;;;;33.58;18.65;;;2.00;99.90;;;;;;5037680;28;20025;-78
2022/03/04 06:31:05;;;;;;;31.25;17.98;;;2.00;99.90;;;;;;5034996;28;20086;-78
2022/03/04 06:33:31;;;;;;;33.95;18.70;;;2.00;99.90;;;;;;5040924;28;20033;-77
2022/03/04 06:36:01;;;;;;;35.22;19.75;;;2.00;99.90;;;;;;5028637;28;20441;-76
2022/03/04 06:38:27;;;;;;;31.50;18.27;;;2.00;99.90;;;;;;5036100;28;20017;-78
2022/03/04 06:40:53;;;;;;;33.05;18.42;;;2.00;99.90;;;;;;5033469;28;20109;-77
2022/03/04 06:43:19;;;;;;;35.47;19.15;;;1.90;99.90;;;;;;5020318;28;20347;-77
2022/03/04 06:45:46;;;;;;;33.22;18.20;;;1.90;99.90;;;;;;5032925;28;20030;-78
2022/03/04 06:48:14;;;;;;;36.45;18.42;;;1.90;99.90;;;;;;5032572;28;20474;-77
2022/03/04 06:50:40;;;;;;;38.60;18.60;;;1.80;99.90;;;;;;5023339;28;20085;-79
2022/03/04 06:53:06;;;;;;;36.40;20.55;;;1.90;99.90;;;;;;5040324;28;20752;-80
2022/03/04 06:55:32;;;;;;;33.70;18.60;;;1.80;99.90;;;;;;5027962;28;20025;-80
2022/03/04 06:57:58;;;;;;;41.70;20.30;;;1.80;99.90;;;;;;5037009;28;20018;-88
2022/03/04 07:00:25;;;;;;;34.75;18.27;;;1.90;99.90;;;;;;5034093;28;20033;-88
2022/03/04 07:02:51;;;;;;;37.35;20.38;;;1.90;99.90;;;;;;5035560;28;20021;-87
2022/03/04 07:05:17;;;;;;;35.55;18.98;;;1.90;99.90;;;;;;5036718;28;20505;-90
2022/03/04 07:07:43;;;;;;;32.58;17.83;;;1.90;99.90;;;;;;5030326;28;20041;-89
2022/03/04 07:10:10;;;;;;;34.75;18.67;;;1.80;99.90;;;;;;5032600;28;20092;-88
2022/03/04 07:12:38;;;;;;;30.65;17.85;;;1.80;99.90;;;;;;5033411;28;20105;-89
2022/03/04 07:15:05;;;;;;;31.70;17.50;;;1.90;99.90;;;;;;5035155;28;20124;-87
2022/03/04 07:17:31;;;;;;;36.05;18.70;;;1.80;99.90;;;;;;5036736;28;20059;-82
2022/03/04 07:19:59;;;;;;;35.72;19.95;;;1.80;99.90;;;;;;5037647;28;20450;-87
2022/03/04 07:22:26;;;;;;;36.10;18.27;;;1.80;99.90;;;;;;5034919;28;20033;-87
2022/03/04 07:24:52;;;;;;;35.88;18.88;;;1.80;99.90;;;;;;5048214;28;20033;-86
2022/03/04 07:27:18;;;;;;;40.90;18.85;;;1.80;99.90;;;;;;5027161;28;20029;-85
2022/03/04 07:29:44;;;;;;;35.20;19.17;;;1.90;99.90;;;;;;5042611;28;20028;-83
2022/03/04 07:32:10;;;;;;;36.28;19.73;;;1.80;99.90;;;;;;5033450;28;20033;-84
2022/03/04 07:34:37;;;;;;;34.47;19.30;;;1.90;99.90;;;;;;5040591;28;20401;-86
2022/03/04 07:37:03;;;;;;;36.33;20.08;;;1.90;99.90;;;;;;5042681;28;20029;-78
2022/03/04 07:39:28;;;;;;;35.75;19.02;;;1.90;99.90;;;;;;5031903;28;20036;-77
2022/03/04 07:41:54;;;;;;;35.10;19.55;;;2.00;99.90;;;;;;5040961;28;20020;-78
2022/03/04 07:44:20;;;;;;;44.53;20.25;;;1.90;99.90;;;;;;5026851;28;20056;-79
2022/03/04 07:46:45;;;;;;;39.55;19.45;;;1.90;99.90;;;;;;5033488;28;20017;-80
2022/03/04 07:49:11;;;;;;;36.67;19.90;;;2.00;99.90;;;;;;5035145;28;20034;-80
2022/03/04 07:51:37;;;;;;;46.53;20.85;;;2.00;99.90;;;;;;5035468;28;20088;-82
2022/03/04 07:54:03;;;;;;;34.88;19.00;;;2.10;99.90;;;;;;5033427;28;20375;-79
2022/03/04 07:56:28;;;;;;;39.92;19.67;;;2.20;99.90;;;;;;5034058;28;20014;-83
2022/03/04 07:58:55;;;;;;;35.80;19.65;;;2.40;99.90;;;;;;5029387;28;20496;-85
2022/03/04 08:01:21;;;;;;;37.65;20.23;;;2.50;99.90;;;;;;5047332;28;20033;-86
2022/03/04 08:03:48;;;;;;;42.58;21.42;;;2.60;99.90;;;;;;5033234;28;20029;-86
2022/03/04 08:06:13;;;;;;;36.47;19.38;;;2.70;99.90;;;;;;5034139;28;20026;-86
2022/03/04 08:08:39;;;;;;;37.35;19.98;;;2.80;99.90;;;;;;5032362;28;20022;-86
2022/03/04 08:11:06;;;;;;;34.83;19.67;;;2.90;99.90;;;;;;5032132;28;20025;-86
2022/03/04 08:13:34;;;;;;;41.42;22.23;;;3.10;99.90;;;;;;5037233;28;20031;-84
2022/03/04 08:16:00;;;;;;;36.40;19.48;;;3.40;99.90;;;;;;5028542;28;22138;-82
2022/03/04 08:18:27;;;;;;;36.13;19.90;;;3.50;99.90;;;;;;5033084;28;20013;-85
2022/03/04 08:20:53;;;;;;;35.78;18.85;;;3.60;99.90;;;;;;5033331;28;20029;-80
2022/03/04 08:23:18;;;;;;;37.70;20.50;;;3.70;99.90;;;;;;5028966;28;20041;-88
2022/03/04 08:25:44;;;;;;;36.40;20.40;;;3.90;99.90;;;;;;5030378;28;20089;-86
2022/03/04 08:28:10;;;;;;;33.55;19.23;;;4.10;99.90;;;;;;5037349;28;20044;-87
2022/03/04 08:30:37;;;;;;;32.42;18.60;;;4.30;99.90;;;;;;5043427;28;20048;-89
2022/03/04 08:33:04;;;;;;;32.67;18.25;;;4.40;99.90;;;;;;5057227;28;20028;-90
2022/03/04 08:35:30;;;;;;;40.28;20.50;;;4.40;99.90;;;;;;5048047;28;20356;-82
2022/03/04 08:37:57;;;;;;;32.88;19.73;;;4.70;99.90;;;;;;5029948;28;20096;-88
2022/03/04 08:40:23;;;;;;;37.58;19.45;;;4.90;99.90;;;;;;5036875;28;20025;-78
2022/03/04 08:42:49;;;;;;;39.85;21.40;;;5.10;99.90;;;;;;5035690;28;20032;-79
2022/03/04 08:45:15;;;;;;;39.20;20.67;;;5.20;99.90;;;;;;5038506;28;20025;-78
2022/03/04 08:47:43;;;;;;;33.42;17.50;;;5.30;99.90;;;;;;5035760;28;20417;-78
2022/03/04 08:50:11;;;;;;;33.22;19.52;;;5.40;99.90;;;;;;5031365;28;20437;-79
2022/03/04 08:52:37;;;;;;;34.30;18.23;;;5.60;99.90;;;;;;5032388;28;20029;-79
2022/03/04 08:55:04;;;;;;;35.38;19.35;;;5.60;99.90;;;;;;5026841;28;20091;-79
2022/03/04 08:57:31;;;;;;;30.02;17.73;;;5.70;99.90;;;;;;5032137;28;20030;-79
2022/03/04 08:59:57;;;;;;;39.35;18.58;;;5.70;99.90;;;;;;5024500;28;20025;-84
2022/03/04 09:02:23;;;;;;;38.22;19.05;;;5.80;99.90;;;;;;5033991;28;20477;-84
2022/03/04 09:04:50;;;;;;;36.40;17.60;;;5.80;99.90;;;;;;5033281;28;20045;-79
2022/03/04 09:07:16;;;;;;;31.58;17.92;;;6.00;99.90;;;;;;5033008;28;20112;-78
2022/03/04 09:09:43;;;;;;;34.42;18.63;;;6.10;99.90;;;;;;5036982;28;20505;-78
2022/03/04 09:12:09;;;;;;;32.25;18.25;;;6.40;99.90;;;;;;5032107;28;20029;-78
2022/03/04 09:14:35;;;;;;;32.47;19.20;;;6.40;99.90;;;;;;5032836;28;20083;-79
2022/03/04 09:17:02;;;;;;;32.17;18.05;;;6.50;99.90;;;;;;5044586;28;20032;-79
2022/03/04 09:19:27;;;;;;;34.38;18.13;;;6.70;99.90;;;;;;5022176;28;20625;-81
2022/03/04 09:21:53;;;;;;;32.65;18.65;;;6.90;99.90;;;;;;5038006;28;20098;-80
2022/03/04 09:24:19;;;;;;;37.13;20.30;;;7.00;99.90;;;;;;5024590;28;20037;-80
2022/03/04 09:26:44;;;;;;;31.58;18.70;;;7.10;99.90;;;;;;5038422;28;20025;-82
2022/03/04 09:29:10;;;;;;;32.03;19.70;;;7.20;99.90;;;;;;5029358;28;20547;-83
2022/03/04 09:31:36;;;;;;;31.50;17.98;;;7.30;99.90;;;;;;5028082;28;20060;-85
2022/03/04 09:34:02;;;;;;;33.20;18.45;;;7.40;99.90;;;;;;5041233;28;20270;-87
2022/03/04 09:36:28;;;;;;;32.20;17.05;;;7.60;99.90;;;;;;5040196;28;20049;-88
2022/03/04 09:38:54;;;;;;;37.35;19.90;;;7.70;99.90;;;;;;5044482;28;20021;-87
2022/03/04 09:41:20;;;;;;;34.35;18.20;;;7.90;99.90;;;;;;5031975;28;20390;-86
2022/03/04 09:43:46;;;;;;;29.75;17.85;;;7.90;99.90;;;;;;5046649;28;20021;-87
2022/03/04 09:46:13;;;;;;;33.35;21.00;;;7.90;99.90;;;;;;5043358;28;20134;-87
2022/03/04 09:48:43;;;;;;;33.38;18.30;;;8.10;99.90;;;;;;5032893;28;20501;-88
2022/03/04 09:51:10;;;;;;;30.17;18.80;;;8.00;99.90;;;;;;5027529;28;20021;-88
2022/03/04 09:53:36;;;;;;;34.85;18.65;;;8.10;99.90;;;;;;5045900;28;20033;-84
2022/03/04 09:56:02;;;;;;;29.02;17.40;;;8.20;99.90;;;;;;5035714;28;20063;-84
2022/03/04 09:58:28;;;;;;;35.05;17.80;;;8.30;99.90;;;;;;5034834;28;20104;-84
2022/03/04 10:00:54;;;;;;;54.97;20.38;;;8.40;99.90;;;;;;5034869;28;20873;-83
2022/03/04 10:03:30;;;;;;;30.88;18.05;;;8.50;99.90;;;;;;5041815;28;20025;-86
2022/03/04 10:05:57;;;;;;;32.60;19.27;;;8.50;99.90;;;;;;5031828;28;20036;-86
2022/03/04 10:08:24;;;;;;;34.75;20.23;;;8.70;99.90;;;;;;5030310;28;20017;-85
2022/03/04 10:10:54;;;;;;;33.72;19.40;;;8.80;99.90;;;;;;5033755;28;20025;-84
2022/03/04 10:13:42;;;;;;;37.53;18.98;;;8.80;99.60;;;;;;5042797;28;20103;-84
2022/03/04 10:16:08;;;;;;;35.13;18.60;;;8.90;99.90;;;;;;5022412;28;20386;-84
2022/03/04 10:18:34;;;;;;;32.22;19.25;;;9.00;99.90;;;;;;5035275;28;20036;-77
2022/03/04 10:21:00;;;;;;;38.17;18.38;;;9.20;99.60;;;;;;5029201;28;20248;-78
2022/03/04 10:23:27;;;;;;;31.45;19.23;;;9.20;99.10;;;;;;5037398;28;20057;-77
2022/03/04 10:25:56;;;;;;;31.98;19.98;;;9.40;99.60;;;;;;5047026;28;20762;-80
2022/03/04 10:28:23;;;;;;;33.58;20.33;;;9.40;99.90;;;;;;5038874;28;20018;-79
2022/03/04 10:30:52;;;;;;;28.77;18.23;;;9.70;99.80;;;;;;5037447;28;20474;-77
2022/03/04 10:33:20;;;;;;;33.75;19.42;;;9.80;98.50;;;;;;5041542;28;20017;-78
2022/03/04 10:35:50;;;;;;;31.70;18.65;;;10.00;98.30;;;;;;5033824;28;20118;-78
2022/03/04 10:38:26;;;;;;;36.67;19.17;;;10.00;98.60;;;;;;5041021;28;20060;-77
2022/03/04 10:40:51;;;;;;;31.98;19.00;;;10.10;98.20;;;;;;5032410;28;20033;-78
2022/03/04 10:43:23;;;;;;;30.88;18.52;;;10.20;98.60;;;;;;5035357;28;20021;-76
2022/03/04 10:46:02;;;;;;;33.35;20.83;;;10.30;97.80;;;;;;5032723;28;20025;-77
2022/03/04 10:48:29;;;;;;;32.80;20.08;;;10.40;97.60;;;;;;5039035;28;20018;-78
2022/03/04 10:50:57;;;;;;;32.40;20.13;;;10.50;97.90;;;;;;5033397;28;20083;-79
2022/03/04 10:53:28;;;;;;;32.22;19.63;;;10.60;96.30;;;;;;5025547;28;20045;-79
2022/03/04 10:56:06;;;;;;;29.98;18.13;;;10.50;97.60;;;;;;5034502;28;20025;-77
2022/03/04 10:58:37;;;;;;;31.50;19.95;;;10.70;99.90;;;;;;5045980;28;20025;-77
2022/03/04 11:01:09;;;;;;;29.15;18.80;;;10.80;97.10;;;;;;5038049;28;20112;-78
2022/03/04 11:03:36;;;;;;;30.55;18.38;;;10.80;97.30;;;;;;5036464;28;20383;-78
2022/03/04 11:06:07;;;;;;;31.95;19.38;;;10.90;95.90;;;;;;5045793;28;20032;-76
2022/03/04 11:08:34;;;;;;;31.85;20.17;;;11.00;95.10;;;;;;5047568;28;20056;-77
2022/03/04 11:11:03;;;;;;;32.22;19.67;;;11.10;95.10;;;;;;5046995;28;20017;-78
2022/03/04 11:13:35;;;;;;;31.70;18.83;;;11.20;95.70;;;;;;5034319;28;20028;-77
2022/03/04 11:16:02;;;;;;;29.33;18.48;;;11.30;95.00;;;;;;5032913;28;20566;-77
2022/03/04 11:18:28;;;;;;;25.00;15.65;;;11.30;95.50;;;;;;5040959;28;20040;-84
2022/03/04 11:20:57;;;;;;;27.48;18.02;;;11.40;96.60;;;;;;5030496;28;20018;-84
2022/03/04 11:23:28;;;;;;;31.83;19.02;;;11.40;94.70;;;;;;5031507;28;20591;-81
2022/03/04 11:26:00;;;;;;;45.37;19.57;;;11.50;93.90;;;;;;5032909;28;20109;-80
2022/03/04 11:28:35;;;;;;;27.48;17.77;;;11.50;96.00;;;;;;5029099;28;20024;-73
2022/03/04 11:31:06;;;;;;;28.30;16.85;;;11.70;93.40;;;;;;5032671;28;20044;-81
2022/03/04 11:33:34;;;;;;;27.63;16.88;;;11.70;94.20;;;;;;5026234;28;20490;-79
2022/03/04 11:36:06;;;;;;;28.95;18.13;;;11.60;94.30;;;;;;5038644;28;20504;-83
2022/03/04 11:38:46;;;;;;;26.83;16.65;;;11.80;93.60;;;;;;5025596;28;20079;-81
2022/03/04 11:41:27;;;;;;;28.52;16.90;;;12.00;93.80;;;;;;5016316;28;20083;-84
2022/03/04 11:43:54;;;;;;;29.02;17.50;;;12.00;92.10;;;;;;5028031;28;20022;-87
2022/03/04 11:46:27;;;;;;;24.92;16.25;;;12.10;91.50;;;;;;5043166;28;20036;-84
2022/03/04 11:49:22;;;;;;;23.38;15.13;;;12.00;91.10;;;;;;5045741;28;20029;-83
2022/03/04 11:52:10;;;;;;;24.83;14.88;;;11.80;91.70;;;;;;5023899;28;20050;-86
2022/03/04 11:54:39;;;;;;;24.30;15.65;;;11.90;91.00;;;;;;5031292;28;20068;-81
2022/03/04 11:57:18;;;;;;;23.38;13.93;;;12.10;91.50;;;;;;5025572;28;20033;-81
2022/03/04 12:00:12;;;;;;;29.02;16.10;;;12.00;89.80;;;;;;5033034;28;20021;-81
2022/03/04 12:02:53;;;;;;;22.55;15.35;;;12.10;91.50;;;;;;5026746;28;20036;-83
2022/03/04 12:05:21;;;;;;;25.77;12.80;;;12.20;88.70;;;;;;5039112;28;20359;-79
2022/03/04 12:07:49;;;;;;;22.95;14.00;;;12.10;86.80;;;;;;5028769;28;20111;-80
2022/03/04 12:10:16;;;;;;;22.15;13.93;;;12.20;88.40;;;;;;5040105;28;20028;-80
2022/03/04 12:13:00;;;;;;;17.65;11.57;;;12.30;91.20;;;;;;5034515;28;20077;-82
2022/03/04 12:15:27;;;;;;;21.45;11.98;;;12.40;88.50;;;;;;5030438;28;20076;-80
2022/03/04 12:18:02;;;;;;;20.20;12.45;;;12.40;87.30;;;;;;5026088;28;20025;-82
2022/03/04 12:20:37;;;;;;;20.73;13.27;;;12.50;85.00;;;;;;5033905;28;20025;-77
2022/03/04 12:23:17;;;;;;;17.90;11.85;;;12.50;88.70;;;;;;5036121;28;20111;-81
2022/03/04 12:25:52;;;;;;;19.02;11.50;;;12.60;88.50;;;;;;5024974;28;20060;-83
2022/03/04 12:28:40;;;;;;;20.52;12.60;;;12.60;89.70;;;;;;5029553;28;20037;-80
2022/03/04 12:31:05;;;;;;;18.55;11.68;;;12.50;83.50;;;;;;5030385;28;20044;-81
2022/03/04 12:33:41;;;;;;;17.08;10.75;;;12.40;85.00;;;;;;5038917;28;20453;-79
2022/03/04 12:36:15;;;;;;;17.98;11.48;;;12.40;87.20;;;;;;5039918;28;20025;-78